Time;durP1;ratioP1;P1;durP2;ratioP2;P2;SDS_P1;SDS_P2;PMS_P1;PMS_P2;Temp;Humidity;BMP_temperature;BMP_pressure;BME280_temperature;BME280_humidity;BME280_pressure;Samples;Min_cycle;Max_cycle;Signal;HPM_P1;HPM_P2
2023/04/10 00:00:09;;;;;;;10.57;6.68;;;;;;;4.46;100.00;101934.72;10345512;28;20050;-76
2023/04/10 00:05:09;;;;;;;10.10;5.23;;;;;;;4.52;100.00;101935.25;10345197;28;20038;-76
2023/04/10 00:10:10;;;;;;;9.80;5.70;;;;;;;4.54;100.00;101925.00;10363471;28;20053;-78
2023/04/10 00:15:10;;;;;;;11.02;7.70;;;;;;;4.58;100.00;101926.22;10363636;28;20070;-76
2023/04/10 00:20:11;;;;;;;11.50;6.28;;;;;;;4.61;100.00;101921.28;10361115;28;20081;-76
2023/04/10 00:25:12;;;;;;;15.18;8.30;;;;;;;4.60;100.00;101914.28;10362685;28;20034;-75
2023/04/10 00:30:12;;;;;;;14.65;8.75;;;;;;;4.59;100.00;101896.91;10362606;28;20481;-76
2023/04/10 00:35:13;;;;;;;13.45;7.28;;;;;;;4.68;100.00;101888.25;10360259;28;20096;-76
2023/04/10 00:40:13;;;;;;;10.35;6.63;;;;;;;4.89;100.00;101875.34;10344539;28;20388;-75
2023/04/10 00:45:14;;;;;;;12.45;7.90;;;;;;;4.85;100.00;101874.19;10361490;28;20115;-76
2023/04/10 00:50:14;;;;;;;14.38;7.97;;;;;;;4.74;100.00;101867.13;10344311;28;20130;-76
2023/04/10 00:55:15;;;;;;;11.75;8.35;;;;;;;4.74;100.00;101869.72;10342856;28;20046;-76
2023/04/10 01:00:16;;;;;;;11.60;6.68;;;;;;;4.55;100.00;101852.56;10343844;28;20113;-75
2023/04/10 01:05:16;;;;;;;10.60;8.38;;;;;;;4.44;100.00;101852.38;10357923;28;20071;-79
2023/04/10 01:10:19;;;;;;;12.57;9.05;;;;;;;4.47;100.00;101843.19;10335116;28;21231;-76
2023/04/10 01:15:22;;;;;;;13.88;7.22;;;;;;;4.35;100.00;101845.59;10390785;28;20104;-76
2023/04/10 01:20:23;;;;;;;;;;;;;;;4.25;100.00;101836.13;10360656;28;20058;-76
2023/04/10 01:25:30;;;;;;;11.38;7.55;;;;;;;4.19;100.00;101834.66;10375664;28;20059;-76
2023/04/10 01:30:31;;;;;;;10.88;7.90;;;;;;;4.08;100.00;101836.31;10359223;28;20042;-76
2023/04/10 01:35:31;;;;;;;13.50;9.00;;;;;;;3.97;100.00;101827.56;10349546;28;20389;-76
2023/04/10 01:40:32;;;;;;;13.75;9.00;;;;;;;3.81;100.00;101828.75;10335990;28;20065;-76
2023/04/10 01:45:32;;;;;;;16.25;8.95;;;;;;;3.71;100.00;101833.88;10372214;28;20496;-76
2023/04/10 01:50:33;;;;;;;14.75;8.85;;;;;;;3.71;100.00;101830.41;10396464;28;20120;-77
2023/04/10 01:55:33;;;;;;;11.52;7.88;;;;;;;3.62;100.00;101827.88;10393290;28;20069;-76
2023/04/10 02:00:38;;;;;;;13.35;8.02;;;;;;;3.55;100.00;101838.44;10351280;28;20129;-76
2023/04/10 02:05:45;;;;;;;13.48;10.07;;;;;;;3.50;100.00;101817.31;10350091;28;20030;-76
2023/04/10 02:11:00;;;;;;;14.10;9.80;;;;;;;3.50;100.00;101819.91;10404660;28;20033;-77
2023/04/10 02:16:00;;;;;;;17.77;8.32;;;;;;;3.45;100.00;101816.88;10370124;28;20041;-76
2023/04/10 02:21:02;;;;;;;13.45;8.85;;;;;;;3.37;100.00;101808.44;10385282;28;20410;-76
2023/04/10 02:26:07;;;;;;;17.52;7.50;;;;;;;3.27;100.00;101807.44;10349386;28;20108;-76
2023/04/10 02:31:07;;;;;;;11.18;7.55;;;;;;;3.29;100.00;101800.72;10337517;28;20045;-76
2023/04/10 02:36:08;;;;;;;15.00;9.63;;;;;;;3.26;100.00;101796.19;10379184;28;20088;-76
2023/04/10 02:41:08;;;;;;;14.02;10.05;;;;;;;3.22;100.00;101791.50;10348208;28;20034;-76
2023/04/10 02:46:09;;;;;;;14.70;7.53;;;;;;;3.16;100.00;101790.94;10364501;28;20057;-76
2023/04/10 02:51:09;;;;;;;13.18;8.65;;;;;;;3.12;100.00;101781.97;10372957;28;20061;-76
2023/04/10 02:56:11;;;;;;;13.85;8.30;;;;;;;3.10;100.00;101777.44;10365688;28;20042;-77
2023/04/10 03:01:12;;;;;;;14.65;7.80;;;;;;;3.10;100.00;101772.25;10364004;28;20034;-76
2023/04/10 03:06:12;;;;;;;14.70;9.38;;;;;;;3.49;100.00;101769.81;10376506;28;20560;-76
2023/04/10 03:11:13;;;;;;;15.02;8.32;;;;;;;3.51;100.00;101767.38;10401435;28;20137;-76
2023/04/10 03:16:14;;;;;;;12.60;7.60;;;;;;;3.49;100.00;101763.72;10363269;28;20460;-76
2023/04/10 03:21:15;;;;;;;14.60;8.77;;;;;;;3.46;100.00;101759.16;10363081;28;20048;-76
2023/04/10 03:26:15;;;;;;;12.40;8.15;;;;;;;3.52;100.00;101754.53;10384967;28;20447;-76
2023/04/10 03:31:16;;;;;;;11.63;8.32;;;;;;;3.65;100.00;101755.66;10389073;28;20113;-76
2023/04/10 03:36:16;;;;;;;13.38;6.70;;;;;;;3.62;100.00;101748.53;10364073;28;20097;-76
2023/04/10 03:41:17;;;;;;;12.57;7.22;;;;;;;3.64;100.00;101746.06;10363630;28;20453;-77
2023/04/10 03:46:17;;;;;;;19.00;7.47;;;;;;;3.74;100.00;101740.94;10363647;28;20654;-76
2023/04/10 03:51:18;;;;;;;9.77;6.22;;;;;;;3.69;100.00;101741.31;10362046;28;20121;-76
2023/04/10 03:56:19;;;;;;;11.65;6.47;;;;;;;3.51;100.00;101734.63;10350834;28;20075;-76
2023/04/10 04:01:20;;;;;;;11.15;6.53;;;;;;;3.42;100.00;101732.88;10401812;28;20058;-76
2023/04/10 04:06:21;;;;;;;14.50;7.73;;;;;;;3.43;100.00;101726.94;10345935;28;20045;-75
2023/04/10 04:11:21;;;;;;;13.60;7.50;;;;;;;3.23;100.00;101726.94;10360383;28;20077;-76
2023/04/10 04:16:22;;;;;;;13.43;6.75;;;;;;;3.19;100.00;101730.00;10329952;28;20033;-76
2023/04/10 04:21:23;;;;;;;10.82;7.32;;;;;;;3.07;100.00;101732.41;10360376;28;20053;-76
2023/04/10 04:26:23;;;;;;;14.82;7.60;;;;;;;3.05;100.00;101730.44;10344490;28;20041;-77
2023/04/10 04:31:28;;;;;;;10.13;7.20;;;;;;;2.99;100.00;101728.22;10351125;28;20120;-76
2023/04/10 04:36:30;;;;;;;12.68;7.63;;;;;;;2.93;100.00;101715.59;10360422;28;20569;-76
2023/04/10 04:41:31;;;;;;;14.50;8.27;;;;;;;2.92;100.00;101713.78;10361446;28;20053;-76
2023/04/10 04:46:31;;;;;;;13.13;7.70;;;;;;;3.06;100.00;101712.47;10343642;28;20092;-76
2023/04/10 04:51:32;;;;;;;13.00;6.70;;;;;;;3.04;100.00;101710.50;10351917;28;20038;-76
2023/04/10 04:56:32;;;;;;;27.70;7.05;;;;;;;3.01;100.00;101712.81;10360684;28;20458;-76
2023/04/10 05:01:33;;;;;;;11.10;6.82;;;;;;;2.96;100.00;101714.06;10360005;28;20111;-77
2023/04/10 05:06:33;;;;;;;11.18;6.13;;;;;;;3.00;100.00;101714.50;10360026;28;20113;-76
2023/04/10 05:11:34;;;;;;;14.57;8.15;;;;;;;3.05;100.00;101712.31;10357935;28;20132;-79
2023/04/10 05:16:35;;;;;;;10.82;7.53;;;;;;;3.19;100.00;101706.72;10390824;28;20117;-76
2023/04/10 05:21:36;;;;;;;13.75;7.97;;;;;;;3.42;100.00;101694.06;10371238;28;20121;-76
2023/04/10 05:26:36;;;;;;;14.30;7.23;;;;;;;3.76;100.00;101690.19;10345100;28;20068;-76
2023/04/10 05:31:37;;;;;;;11.52;6.85;;;;;;;4.24;100.00;101683.06;10334230;28;20420;-77
2023/04/10 05:36:39;;;;;;;11.95;7.40;;;;;;;4.85;100.00;101677.03;10381404;28;20050;-75
2023/04/10 05:41:40;;;;;;;14.60;6.85;;;;;;;5.38;100.00;101670.94;10393912;28;20104;-77
2023/04/10 05:46:41;;;;;;;9.00;5.57;;;;;;;5.83;100.00;101665.84;10334312;28;20596;-76
2023/04/10 05:51:41;;;;;;;10.57;6.65;;;;;;;6.26;100.00;101671.84;10381538;28;20128;-75
2023/04/10 05:56:42;;;;;;;8.77;6.15;;;;;;;7.01;100.00;101678.38;10363114;28;20046;-74
2023/04/10 06:01:42;;;;;;;15.57;6.40;;;;;;;8.21;100.00;101667.00;10365153;28;20128;-76
2023/04/10 06:06:43;;;;;;;8.98;5.75;;;;;;;8.99;100.00;101671.41;10360938;28;20057;-76
2023/04/10 06:11:43;;;;;;;8.50;5.15;;;;;;;9.59;100.00;101679.66;10370732;28;20132;-75
2023/04/10 06:16:44;;;;;;;9.73;5.18;;;;;;;10.06;100.00;101675.63;10365240;28;20388;-74
2023/04/10 06:21:45;;;;;;;8.48;5.43;;;;;;;10.31;100.00;101672.84;10365802;28;20050;-74
2023/04/10 06:26:46;;;;;;;7.85;7.05;;;;;;;10.49;100.00;101672.19;10366634;28;20042;-75
2023/04/10 06:31:46;;;;;;;12.30;7.80;;;;;;;10.70;100.00;101669.97;10395848;28;20385;-74
2023/04/10 06:36:47;;;;;;;8.98;6.35;;;;;;;10.73;100.00;101662.28;10378224;28;20112;-72
2023/04/10 06:41:47;;;;;;;8.40;5.97;;;;;;;10.92;100.00;101652.91;10359854;28;20030;-73
2023/04/10 06:46:48;;;;;;;13.10;7.03;;;;;;;11.03;100.00;101649.19;10341254;28;20034;-73
2023/04/10 06:51:48;;;;;;;11.20;6.50;;;;;;;11.43;97.81;101647.97;10374493;28;20120;-76
2023/04/10 06:56:49;;;;;;;9.63;5.60;;;;;;;11.78;90.99;101643.81;10367298;28;20117;-72
2023/04/10 07:01:49;;;;;;;10.48;6.70;;;;;;;12.39;94.44;101629.59;10371006;28;20116;-73
2023/04/10 07:06:50;;;;;;;10.52;5.30;;;;;;;12.42;87.07;101626.22;10343693;28;20521;-72
2023/04/10 07:11:51;;;;;;;8.65;4.78;;;;;;;12.40;78.63;101622.59;10351177;28;20064;-72
2023/04/10 07:16:52;;;;;;;10.32;6.93;;;;;;;12.14;78.53;101612.53;10330797;28;20512;-72
2023/04/10 07:21:53;;;;;;;12.00;7.05;;;;;;;12.37;76.41;101606.69;10323368;28;20046;-72
2023/04/10 07:26:53;;;;;;;9.25;5.35;;;;;;;12.43;75.31;101593.88;10319550;28;20456;-72
2023/04/10 07:31:54;;;;;;;8.05;5.38;;;;;;;12.23;77.35;101585.00;10359419;28;20125;-73
2023/04/10 07:36:54;;;;;;;10.00;5.90;;;;;;;12.16;77.93;101584.66;10363897;28;20128;-73
2023/04/10 07:41:55;;;;;;;8.63;4.63;;;;;;;11.96;77.57;101578.31;10368546;28;20438;-73
2023/04/10 07:46:56;;;;;;;8.00;5.28;;;;;;;12.03;80.35;101574.34;10349155;28;20133;-73
2023/04/10 07:51:57;;;;;;;7.50;4.30;;;;;;;12.29;90.36;101569.56;10359040;28;20042;-74
2023/04/10 07:56:57;;;;;;;8.52;5.32;;;;;;;12.36;76.23;101568.13;10360448;28;20050;-74
2023/04/10 08:01:58;;;;;;;8.20;4.68;;;;;;;12.24;80.19;101566.69;10354434;28;20030;-74
2023/04/10 08:06:58;;;;;;;7.45;5.68;;;;;;;12.50;73.98;101547.84;10371338;28;20041;-74
2023/04/10 08:11:59;;;;;;;9.10;5.80;;;;;;;12.84;71.97;101532.03;10363162;28;20124;-74
2023/04/10 08:17:00;;;;;;;8.32;5.35;;;;;;;13.57;69.41;101530.25;10351600;28;20086;-74
2023/04/10 08:22:01;;;;;;;10.07;5.07;;;;;;;14.72;68.78;101521.16;10347433;28;20041;-75
2023/04/10 08:27:02;;;;;;;10.05;5.88;;;;;;;14.95;61.86;101512.44;10350575;28;20046;-75
2023/04/10 08:32:02;;;;;;;7.45;6.22;;;;;;;16.54;59.44;101513.84;10372260;28;20037;-76
2023/04/10 08:37:08;;;;;;;7.80;4.88;;;;;;;17.13;61.01;101506.91;10353956;28;20053;-74
2023/04/10 08:42:08;;;;;;;8.35;6.47;;;;;;;16.50;54.50;101498.75;10350666;28;20493;-74
2023/04/10 08:47:09;;;;;;;8.23;5.60;;;;;;;16.09;60.14;101504.38;10352749;28;20148;-73
2023/04/10 08:52:13;;;;;;;9.43;6.28;;;;;;;14.97;58.88;101504.59;10389639;28;20509;-74
2023/04/10 08:57:17;;;;;;;7.18;4.75;;;;;;;14.64;62.66;101499.75;10339421;28;20038;-75
2023/04/10 09:02:18;;;;;;;8.63;6.07;;;;;;;14.38;66.28;101508.34;10356994;28;20045;-76
2023/04/10 09:07:18;;;;;;;6.32;4.72;;;;;;;14.63;66.75;101497.94;10365690;28;20104;-77
2023/04/10 09:12:19;;;;;;;14.07;6.47;;;;;;;14.81;67.19;101492.53;10345096;28;20120;-74
2023/04/10 09:17:23;;;;;;;10.55;6.90;;;;;;;15.36;65.34;101491.19;10358331;28;20053;-73
2023/04/10 09:22:31;;;;;;;11.27;5.90;;;;;;;14.98;65.95;101482.69;10341305;28;20122;-73
2023/04/10 09:27:36;;;;;;;9.05;4.53;;;;;;;15.24;68.41;101474.88;10342042;28;20041;-73
2023/04/10 09:32:43;;;;;;;7.65;4.95;;;;;;;15.41;65.75;101470.25;10358537;28;20037;-73
2023/04/10 09:37:44;;;;;;;7.50;4.47;;;;;;;15.73;68.00;101470.53;10358524;28;20516;-73
2023/04/10 09:42:45;;;;;;;8.05;4.68;;;;;;;16.71;63.22;101460.66;10356919;28;20042;-74
2023/04/10 09:48:02;;;;;;;8.50;6.07;;;;;;;16.59;62.09;101453.22;10354371;28;20485;-74
2023/04/10 09:53:02;;;;;;;9.70;6.18;;;;;;;16.04;63.23;101447.88;10354012;28;20052;-74
2023/04/10 09:58:04;;;;;;;7.82;4.60;;;;;;;15.60;65.06;101433.97;10355531;28;20042;-73
2023/04/10 10:03:07;;;;;;;8.90;5.32;;;;;;;15.50;67.09;101422.22;10356665;28;20041;-73
2023/04/10 10:08:12;;;;;;;5.75;4.00;;;;;;;15.20;68.02;101413.22;10365745;28;20041;-74
2023/04/10 10:13:34;;;;;;;8.77;5.35;;;;;;;15.15;69.41;101398.09;10367183;28;20089;-76
2023/04/10 10:18:54;;;;;;;4.20;3.03;;;;;;;15.29;71.03;101393.31;10364011;28;20473;-75
2023/04/10 10:23:56;;;;;;;5.38;2.97;;;;;;;15.15;65.23;101383.16;10363174;28;20050;-75
2023/04/10 10:28:57;;;;;;;7.20;4.50;;;;;;;15.23;64.15;101373.78;10342810;28;20034;-75
2023/04/10 10:33:57;;;;;;;7.65;3.95;;;;;;;15.36;65.83;101380.41;10363522;28;20045;-74
2023/04/10 10:39:21;;;;;;;5.97;3.33;;;;;;;15.72;61.79;101365.81;10347186;28;20076;-74
2023/04/10 10:44:37;;;;;;;7.30;4.93;;;;;;;15.76;62.27;101348.38;10364478;28;20049;-75
2023/04/10 10:49:52;;;;;;;6.68;3.53;;;;;;;16.21;62.49;101347.22;10367582;28;20065;-74
2023/04/10 10:54:52;;;;;;;5.95;3.00;;;;;;;16.31;62.32;101328.16;10348649;28;20057;-74
2023/04/10 10:59:53;;;;;;;5.45;4.22;;;;;;;16.61;59.72;101327.31;10363829;28;20456;-73
2023/04/10 11:04:53;;;;;;;7.75;5.32;;;;;;;16.87;56.43;101322.81;10348067;28;20034;-74
2023/04/10 11:09:56;;;;;;;5.43;3.47;;;;;;;17.25;55.56;101313.31;10366105;28;20072;-74
2023/04/10 11:14:58;;;;;;;5.40;2.92;;;;;;;17.27;57.17;101309.84;10363892;28;20481;-75
2023/04/10 11:19:59;;;;;;;;;;;;;;;17.62;56.32;101303.69;10347932;28;20056;-74
2023/04/10 11:25:01;;;;;;;5.35;3.22;;;;;;;17.76;56.82;101285.50;10358403;28;19936;-74
2023/04/10 11:30:02;;;;;;;4.53;3.05;;;;;;;17.79;55.42;101280.28;10375414;28;20087;-74
2023/04/10 11:35:03;;;;;;;4.63;3.10;;;;;;;18.23;52.03;101270.75;10382053;28;20060;-74
2023/04/10 11:40:07;;;;;;;5.28;3.90;;;;;;;18.99;49.84;101280.31;10357539;28;20272;-74
2023/04/10 11:45:26;;;;;;;9.25;4.35;;;;;;;18.91;50.38;101265.13;10350930;28;20061;-73
2023/04/10 11:50:28;;;;;;;5.85;4.75;;;;;;;19.07;50.31;101255.72;10370353;28;20517;-73
2023/04/10 11:55:37;;;;;;;5.53;3.50;;;;;;;18.83;49.16;101250.81;10350213;28;20042;-74
2023/04/10 12:00:37;;;;;;;5.07;3.72;;;;;;;18.39;51.78;101256.09;10368987;28;20049;-74
2023/04/10 12:05:45;;;;;;;3.42;2.40;;;;;;;18.07;52.86;101251.84;10363616;28;20119;-74
2023/04/10 12:10:47;;;;;;;6.88;3.40;;;;;;;17.64;50.93;101240.22;10357632;28;20045;-74
2023/04/10 12:15:47;;;;;;;14.67;9.03;;;;;;;17.46;52.04;101239.81;10320789;28;20133;-74
2023/04/10 12:20:50;;;;;;;7.05;3.90;;;;;;;17.87;54.50;101240.78;10304792;28;20397;-73
2023/04/10 12:25:51;;;;;;;5.65;3.67;;;;;;;17.78;53.02;101216.75;10346279;28;20052;-75
2023/04/10 12:30:54;;;;;;;5.90;3.05;;;;;;;18.06;51.08;101218.28;10391243;28;20042;-75
2023/04/10 12:35:55;;;;;;;4.80;2.20;;;;;;;17.98;51.81;101198.66;10387389;28;20041;-74
2023/04/10 12:40:59;;;;;;;5.10;3.30;;;;;;;18.20;50.22;101195.63;10397332;28;20053;-74
2023/04/10 12:46:00;;;;;;;6.03;3.95;;;;;;;18.07;50.34;101188.28;10387459;28;20049;-76
2023/04/10 12:51:00;;;;;;;3.80;2.40;;;;;;;18.06;49.83;101181.19;10378520;28;20045;-74
2023/04/10 12:56:05;;;;;;;3.03;1.92;;;;;;;18.32;51.60;101180.88;10395953;28;20552;-75
2023/04/10 13:01:06;;;;;;;5.43;2.97;;;;;;;18.85;49.65;101153.63;10385716;28;20034;-76
2023/04/10 13:06:07;;;;;;;7.07;3.80;;;;;;;18.71;50.32;101156.00;10368733;28;20048;-74
2023/04/10 13:11:07;;;;;;;6.85;2.75;;;;;;;18.35;51.26;101138.53;10368378;28;20345;-74
2023/04/10 13:16:11;;;;;;;5.07;2.10;;;;;;;18.38;50.19;101137.72;10388568;28;20084;-74
2023/04/10 13:21:17;;;;;;;4.22;2.17;;;;;;;18.55;50.73;101135.38;10369811;28;20085;-75
2023/04/10 13:26:17;;;;;;;5.25;3.35;;;;;;;18.35;50.79;101122.63;10371605;28;20545;-74
2023/04/10 13:31:18;;;;;;;3.03;2.10;;;;;;;18.14;49.07;101101.94;10336754;28;20052;-73
2023/04/10 13:36:18;;;;;;;3.25;1.92;;;;;;;17.96;49.56;101098.00;10341503;28;20034;-74
2023/04/10 13:41:19;;;;;;;3.17;2.17;;;;;;;18.30;51.87;101080.19;10346591;28;20097;-74
2023/04/10 13:46:19;;;;;;;3.25;2.03;;;;;;;18.31;49.87;101070.44;10345915;28;20042;-74
2023/04/10 13:51:20;;;;;;;3.20;2.53;;;;;;;18.11;53.00;101048.91;10337261;28;20066;-77
2023/04/10 13:56:20;;;;;;;2.55;1.60;;;;;;;17.88;50.82;101044.00;10339729;28;20498;-75
2023/04/10 14:01:21;;;;;;;4.38;2.65;;;;;;;17.65;52.91;101025.88;10375646;28;20084;-75
2023/04/10 14:06:21;;;;;;;2.42;1.77;;;;;;;17.52;50.98;101022.06;10365471;28;20128;-74
2023/04/10 14:11:22;;;;;;;4.32;2.75;;;;;;;17.34;50.41;100988.19;10339350;28;20459;-74
2023/04/10 14:16:22;;;;;;;5.53;2.63;;;;;;;17.22;48.87;100990.56;10340622;28;20125;-74
2023/04/10 14:21:23;;;;;;;5.93;1.85;;;;;;;17.16;50.24;100986.00;10345838;28;20034;-74
2023/04/10 14:26:23;;;;;;;2.95;1.92;;;;;;;17.39;51.31;100972.41;10326611;28;20444;-74
2023/04/10 14:31:24;;;;;;;2.25;1.40;;;;;;;17.25;50.24;100967.72;10325222;28;20046;-74
2023/04/10 14:36:24;;;;;;;2.70;1.95;;;;;;;17.12;50.28;100977.13;10352110;28;20470;-74
2023/04/10 14:41:25;;;;;;;2.55;1.58;;;;;;;16.80;51.48;100965.78;10365277;28;20042;-73
2023/04/10 14:46:26;;;;;;;3.42;2.10;;;;;;;16.68;52.40;100972.53;10355441;28;20044;-74
2023/04/10 14:51:26;;;;;;;2.38;2.17;;;;;;;16.44;53.05;100973.72;10364988;28;20076;-74
2023/04/10 14:56:27;;;;;;;2.85;1.95;;;;;;;16.23;54.61;100971.44;10348946;28;20074;-76
2023/04/10 15:01:27;;;;;;;3.92;1.95;;;;;;;16.09;55.87;100981.63;10378147;28;20042;-74
2023/04/10 15:06:28;;;;;;;3.53;1.90;;;;;;;15.47;61.63;100974.59;10362961;28;20121;-74
2023/04/10 15:11:28;;;;;;;4.95;2.40;;;;;;;14.91;72.86;100975.56;10365277;28;20129;-74
2023/04/10 15:16:29;;;;;;;5.32;1.95;;;;;;;14.63;81.11;100958.81;10366959;28;20084;-74
2023/04/10 15:21:30;;;;;;;4.10;2.25;;;;;;;14.37;91.61;100952.72;10359344;28;20133;-75
2023/04/10 15:26:30;;;;;;;4.28;2.13;;;;;;;14.15;100.00;100946.72;10356970;28;20124;-73
2023/04/10 15:31:31;;;;;;;8.40;3.40;;;;;;;13.69;100.00;100943.34;10359218;28;20038;-74
2023/04/10 15:36:31;;;;;;;5.80;2.67;;;;;;;13.32;100.00;100935.00;10379689;28;20045;-74
2023/04/10 15:41:32;;;;;;;3.35;1.85;;;;;;;13.26;100.00;100899.69;10377123;28;20038;-74
2023/04/10 15:46:33;;;;;;;17.15;10.32;;;;;;;13.41;100.00;100883.59;10361011;28;20125;-76
2023/04/10 15:51:34;;;;;;;2.95;2.15;;;;;;;13.68;100.00;100857.41;10387341;28;20042;-75
2023/04/10 15:56:34;;;;;;;3.13;1.88;;;;;;;13.92;100.00;100878.41;10357347;28;20045;-77
2023/04/10 16:01:35;;;;;;;3.75;2.10;;;;;;;13.97;100.00;100868.03;10352121;28;20569;-75
2023/04/10 16:06:36;;;;;;;3.28;1.92;;;;;;;14.02;98.44;100866.44;10320913;28;20050;-75
2023/04/10 16:11:36;;;;;;;2.22;1.42;;;;;;;14.00;97.33;100857.63;10350006;28;20126;-77
2023/04/10 16:16:37;;;;;;;4.22;1.83;;;;;;;13.89;100.00;100853.72;10333366;28;20074;-75
2023/04/10 16:21:38;;;;;;;3.58;1.85;;;;;;;13.64;100.00;100842.38;10362275;28;20032;-75
2023/04/10 16:26:41;;;;;;;4.25;1.70;;;;;;;13.46;100.00;100811.09;10377774;28;20048;-75
2023/04/10 16:31:41;;;;;;;3.47;2.20;;;;;;;13.12;100.00;100812.47;10361436;28;20504;-75
2023/04/10 16:36:42;;;;;;;4.28;2.00;;;;;;;12.89;100.00;100823.03;10368256;28;20124;-75
2023/04/10 16:41:43;;;;;;;5.88;1.75;;;;;;;12.78;100.00;100812.09;10380256;28;20100;-75
2023/04/10 16:46:43;;;;;;;2.83;1.52;;;;;;;12.98;100.00;100791.84;10363710;28;20436;-75
2023/04/10 16:51:44;;;;;;;4.85;2.20;;;;;;;13.12;100.00;100796.72;10358689;28;20148;-74
2023/04/10 16:56:44;;;;;;;2.75;1.92;;;;;;;12.92;100.00;100803.00;10358545;28;20121;-75
2023/04/10 17:01:45;;;;;;;3.53;1.98;;;;;;;12.62;100.00;100808.88;10359997;28;20062;-75
2023/04/10 17:06:45;;;;;;;3.40;2.13;;;;;;;12.38;100.00;100800.06;10353371;28;20045;-75
2023/04/10 17:11:46;;;;;;;2.78;2.10;;;;;;;12.42;100.00;100807.22;10357950;28;20371;-75
2023/04/10 17:16:46;;;;;;;4.43;2.03;;;;;;;12.21;100.00;100809.91;10336282;28;20052;-75
2023/04/10 17:21:47;;;;;;;4.07;2.38;;;;;;;12.32;100.00;100799.00;10314371;28;20066;-75
2023/04/10 17:26:48;;;;;;;13.50;6.97;;;;;;;12.48;100.00;100813.63;10319999;28;20049;-74
2023/04/10 17:31:48;;;;;;;5.47;2.97;;;;;;;12.71;100.00;100812.72;10340710;28;20045;-74
2023/04/10 17:36:49;;;;;;;4.93;2.42;;;;;;;12.74;100.00;100828.56;10341514;28;20042;-74
2023/04/10 17:41:49;;;;;;;4.93;2.58;;;;;;;12.28;100.00;100823.31;10315126;28;20117;-74
2023/04/10 17:46:52;;;;;;;3.15;2.10;;;;;;;11.83;100.00;100838.94;10284678;28;20121;-74
2023/04/10 17:51:52;;;;;;;4.97;2.53;;;;;;;11.49;100.00;100847.97;10333362;28;20050;-74
2023/04/10 17:56:53;;;;;;;7.32;3.00;;;;;;;11.19;100.00;100856.28;10327435;28;20448;-75
2023/04/10 18:01:53;;;;;;;8.27;3.75;;;;;;;10.91;100.00;100896.91;10323207;28;20212;-74
2023/04/10 18:06:54;;;;;;;7.10;4.03;;;;;;;10.49;100.00;100897.56;10315926;28;20121;-74
2023/04/10 18:11:54;;;;;;;10.25;4.97;;;;;;;10.18;100.00;100915.22;10338736;28;20069;-75
2023/04/10 18:16:55;;;;;;;10.68;5.28;;;;;;;9.98;100.00;100907.28;10353693;28;20151;-75
2023/04/10 18:21:55;;;;;;;11.63;6.55;;;;;;;9.77;100.00;100912.31;10370226;28;20121;-74
2023/04/10 18:26:56;;;;;;;10.95;6.35;;;;;;;9.67;100.00;100921.38;10359330;28;20037;-76
2023/04/10 18:31:56;;;;;;;10.35;5.43;;;;;;;9.58;100.00;100928.75;10355770;28;20503;-73
2023/04/10 18:36:57;;;;;;;9.07;4.70;;;;;;;9.45;100.00;100916.75;10359110;28;20041;-74
2023/04/10 18:42:00;;;;;;;8.68;4.78;;;;;;;9.35;100.00;100923.19;10315172;28;20105;-74
2023/04/10 18:47:00;;;;;;;8.82;3.30;;;;;;;9.27;100.00;100898.38;10370869;28;20061;-74
2023/04/10 18:52:01;;;;;;;7.88;4.50;;;;;;;9.21;100.00;100883.28;10362967;28;20053;-74
2023/04/10 18:57:01;;;;;;;5.80;4.25;;;;;;;9.16;100.00;100889.97;10359090;28;20041;-74
2023/04/10 19:02:02;;;;;;;5.20;3.17;;;;;;;9.14;100.00;100857.66;10337717;28;20397;-74
2023/04/10 19:07:03;;;;;;;6.45;4.28;;;;;;;9.09;100.00;100831.31;10330781;28;20073;-73
2023/04/10 19:12:04;;;;;;;9.73;3.80;;;;;;;9.05;100.00;100855.44;10321800;28;20038;-75
2023/04/10 19:17:05;;;;;;;6.85;4.10;;;;;;;9.02;100.00;100868.34;10341196;28;20095;-75
2023/04/10 19:22:05;;;;;;;10.30;3.95;;;;;;;9.03;100.00;100877.09;10386186;28;20092;-74
2023/04/10 19:27:06;;;;;;;13.30;4.55;;;;;;;9.03;100.00;100901.47;10322406;28;20042;-74
2023/04/10 19:32:06;;;;;;;8.15;4.18;;;;;;;9.04;100.00;100900.66;10310945;28;20498;-74
2023/04/10 19:37:07;;;;;;;8.68;4.07;;;;;;;9.00;100.00;100885.63;10335491;28;20069;-76
2023/04/10 19:42:07;;;;;;;7.43;3.17;;;;;;;8.94;100.00;100887.91;10327731;28;20030;-74
2023/04/10 19:47:08;;;;;;;7.22;3.40;;;;;;;8.91;100.00;100861.63;10372770;28;20455;-75
2023/04/10 19:52:08;;;;;;;11.20;2.33;;;;;;;8.86;100.00;100890.13;10339080;28;20060;-75
2023/04/10 19:57:09;;;;;;;3.70;2.15;;;;;;;8.77;100.00;100866.13;10338586;28;20072;-74
2023/04/10 20:02:11;;;;;;;7.00;1.80;;;;;;;8.67;100.00;100862.09;10332433;28;20073;-75
2023/04/10 20:07:11;;;;;;;5.30;1.77;;;;;;;8.49;100.00;100842.00;10342947;28;20042;-75
2023/04/10 20:12:12;;;;;;;4.72;1.42;;;;;;;8.45;100.00;100800.00;10331978;28;20054;-74
2023/04/10 20:17:12;;;;;;;2.70;1.20;;;;;;;8.26;100.00;100775.50;10343026;28;20569;-74
2023/04/10 20:22:13;;;;;;;6.95;3.35;;;;;;;8.19;100.00;100799.44;10346609;28;20141;-74
2023/04/10 20:27:14;;;;;;;4.07;1.50;;;;;;;8.13;100.00;100791.28;10343637;28;20057;-74
2023/04/10 20:32:14;;;;;;;7.57;1.80;;;;;;;8.12;100.00;100785.13;10349526;28;20054;-73
2023/04/10 20:37:20;;;;;;;5.00;1.63;;;;;;;8.11;100.00;100785.94;10360232;28;20073;-73
2023/04/10 20:42:22;;;;;;;6.05;1.65;;;;;;;8.15;100.00;100789.66;10336265;28;20129;-73
2023/04/10 20:47:22;;;;;;;3.10;1.40;;;;;;;8.17;100.00;100791.50;10322961;28;20053;-73
2023/04/10 20:52:23;;;;;;;10.07;2.88;;;;;;;8.25;100.00;100806.69;10328201;28;20462;-73
2023/04/10 20:57:23;;;;;;;6.32;1.48;;;;;;;8.35;100.00;100822.03;10350915;28;20217;-74
2023/04/10 21:02:24;;;;;;;6.60;1.70;;;;;;;8.37;100.00;100796.94;10300249;28;20134;-73
2023/04/10 21:07:24;;;;;;;3.55;1.50;;;;;;;8.38;100.00;100770.03;10274111;28;20053;-74
2023/04/10 21:12:25;;;;;;;4.57;2.10;;;;;;;8.35;100.00;100743.81;10297134;28;20070;-73
2023/04/10 21:17:29;;;;;;;6.03;1.63;;;;;;;8.34;100.00;100750.75;10298509;28;20474;-73
2023/04/10 21:22:30;;;;;;;4.85;2.08;;;;;;;8.06;100.00;100751.81;10309663;28;20488;-74
2023/04/10 21:27:30;;;;;;;4.45;2.53;;;;;;;7.83;100.00;100770.47;10311605;28;20189;-73
2023/04/10 21:32:31;;;;;;;6.35;2.55;;;;;;;7.72;100.00;100777.66;10303021;28;20170;-74
2023/04/10 21:37:31;;;;;;;7.53;1.88;;;;;;;7.69;100.00;100738.41;10324317;28;20081;-73
2023/04/10 21:42:32;;;;;;;4.10;1.60;;;;;;;7.72;100.00;100764.63;10306796;28;20034;-73
2023/04/10 21:47:32;;;;;;;3.78;1.80;;;;;;;7.81;100.00;100783.41;10323493;28;20072;-73
2023/04/10 21:52:33;;;;;;;3.50;2.03;;;;;;;7.98;100.00;100819.94;10322768;28;20133;-73
2023/04/10 21:57:33;;;;;;;5.80;2.80;;;;;;;8.20;100.00;100817.75;10309456;28;20133;-74
2023/04/10 22:02:34;;;;;;;2.97;1.33;;;;;;;8.21;100.00;100790.88;10301535;28;20113;-73
2023/04/10 22:07:34;;;;;;;7.45;1.85;;;;;;;8.10;100.00;100778.94;10306008;28;21412;-74
2023/04/10 22:12:35;;;;;;;7.15;2.30;;;;;;;7.89;100.00;100753.47;10348155;28;20180;-74
2023/04/10 22:17:35;;;;;;;10.27;5.63;;;;;;;7.87;100.00;100778.53;10389783;28;20070;-74
2023/04/10 22:22:36;;;;;;;10.45;3.95;;;;;;;7.68;100.00;100770.47;10373421;28;20427;-73
2023/04/10 22:27:36;;;;;;;5.72;2.17;;;;;;;7.69;100.00;100764.47;10348624;28;20181;-73
2023/04/10 22:32:37;;;;;;;8.57;2.17;;;;;;;7.66;100.00;100759.06;10346724;28;20120;-74
2023/04/10 22:37:37;;;;;;;8.48;2.13;;;;;;;7.72;100.00;100762.03;10356411;28;20046;-74
2023/04/10 22:42:38;;;;;;;13.23;3.63;;;;;;;7.93;100.00;100755.44;10380823;28;20049;-74
2023/04/10 22:47:38;;;;;;;6.22;1.85;;;;;;;8.04;100.00;100756.06;10355836;28;20135;-73
2023/04/10 22:52:40;;;;;;;6.55;1.98;;;;;;;8.20;100.00;100744.75;10344784;28;20128;-73
2023/04/10 22:57:41;;;;;;;6.70;2.92;;;;;;;8.25;100.00;100721.56;10333430;28;20046;-74